sensor_id;sensor_type;location;lat;lon;timestamp;temperature;humidity
62581;DHT22;48640;48.770;9.148;2023-09-12T00:00:41;21.20;94.60
62581;DHT22;48640;48.770;9.148;2023-09-12T00:03:08;21.30;94.40
62581;DHT22;48640;48.770;9.148;2023-09-12T00:05:35;21.20;94.50
62581;DHT22;48640;48.770;9.148;2023-09-12T00:08:02;21.20;94.30
62581;DHT22;48640;48.770;9.148;2023-09-12T00:10:30;21.30;94.40
62581;DHT22;48640;48.770;9.148;2023-09-12T00:12:57;21.30;94.50
62581;DHT22;48640;48.770;9.148;2023-09-12T00:15:26;21.20;94.60
62581;DHT22;48640;48.770;9.148;2023-09-12T00:17:54;21.20;94.60
62581;DHT22;48640;48.770;9.148;2023-09-12T00:20:21;21.20;94.70
62581;DHT22;48640;48.770;9.148;2023-09-12T00:22:48;21.10;94.80
62581;DHT22;48640;48.770;9.148;2023-09-12T00:25:15;21.10;95.30
62581;DHT22;48640;48.770;9.148;2023-09-12T00:27:42;21.00;95.40
62581;DHT22;48640;48.770;9.148;2023-09-12T00:30:10;21.10;95.30
62581;DHT22;48640;48.770;9.148;2023-09-12T00:32:37;21.00;95.60
62581;DHT22;48640;48.770;9.148;2023-09-12T00:35:06;21.00;95.80
62581;DHT22;48640;48.770;9.148;2023-09-12T00:37:33;20.90;95.80
62581;DHT22;48640;48.770;9.148;2023-09-12T00:39:59;21.00;95.70
62581;DHT22;48640;48.770;9.148;2023-09-12T00:42:26;21.00;96.00
62581;DHT22;48640;48.770;9.148;2023-09-12T00:44:53;21.00;95.60
62581;DHT22;48640;48.770;9.148;2023-09-12T00:47:21;21.00;95.70
62581;DHT22;48640;48.770;9.148;2023-09-12T00:49:49;21.00;96.10
62581;DHT22;48640;48.770;9.148;2023-09-12T00:52:19;21.00;95.80
62581;DHT22;48640;48.770;9.148;2023-09-12T00:54:46;20.90;96.00
62581;DHT22;48640;48.770;9.148;2023-09-12T00:57:13;20.90;96.00
62581;DHT22;48640;48.770;9.148;2023-09-12T00:59:40;20.90;96.00
62581;DHT22;48640;48.770;9.148;2023-09-12T01:02:09;20.80;96.00
62581;DHT22;48640;48.770;9.148;2023-09-12T01:04:37;20.70;96.60
62581;DHT22;48640;48.770;9.148;2023-09-12T01:07:05;20.60;97.00
62581;DHT22;48640;48.770;9.148;2023-09-12T01:09:33;20.60;97.00
62581;DHT22;48640;48.770;9.148;2023-09-12T01:12:01;20.60;96.90
62581;DHT22;48640;48.770;9.148;2023-09-12T01:14:28;20.60;97.10
62581;DHT22;48640;48.770;9.148;2023-09-12T01:16:56;20.60;97.20
62581;DHT22;48640;48.770;9.148;2023-09-12T01:19:24;20.60;97.20
62581;DHT22;48640;48.770;9.148;2023-09-12T01:22:10;20.60;97.00
62581;DHT22;48640;48.770;9.148;2023-09-12T01:25:12;20.50;97.20
62581;DHT22;48640;48.770;9.148;2023-09-12T01:27:49;20.40;97.40
62581;DHT22;48640;48.770;9.148;2023-09-12T01:30:18;20.50;97.30
62581;DHT22;48640;48.770;9.148;2023-09-12T01:32:47;20.60;97.20
62581;DHT22;48640;48.770;9.148;2023-09-12T01:35:14;20.50;97.10
62581;DHT22;48640;48.770;9.148;2023-09-12T01:37:41;20.50;97.10
62581;DHT22;48640;48.770;9.148;2023-09-12T01:40:08;20.60;97.20
62581;DHT22;48640;48.770;9.148;2023-09-12T01:42:38;20.40;97.40
62581;DHT22;48640;48.770;9.148;2023-09-12T01:45:15;20.40;97.00
62581;DHT22;48640;48.770;9.148;2023-09-12T01:47:42;20.50;97.10
62581;DHT22;48640;48.770;9.148;2023-09-12T01:50:12;20.40;97.30
62581;DHT22;48640;48.770;9.148;2023-09-12T01:52:40;20.30;97.40
62581;DHT22;48640;48.770;9.148;2023-09-12T01:55:08;20.40;97.40
62581;DHT22;48640;48.770;9.148;2023-09-12T01:57:37;20.40;97.50
62581;DHT22;48640;48.770;9.148;2023-09-12T02:00:05;20.40;97.40
62581;DHT22;48640;48.770;9.148;2023-09-12T02:02:34;20.30;97.50
62581;DHT22;48640;48.770;9.148;2023-09-12T02:05:07;20.20;97.70
62581;DHT22;48640;48.770;9.148;2023-09-12T02:07:37;20.30;97.70
62581;DHT22;48640;48.770;9.148;2023-09-12T02:10:05;20.30;97.60
62581;DHT22;48640;48.770;9.148;2023-09-12T02:12:32;20.20;97.80
62581;DHT22;48640;48.770;9.148;2023-09-12T02:14:59;20.20;97.90
62581;DHT22;48640;48.770;9.148;2023-09-12T02:17:26;20.20;97.90
62581;DHT22;48640;48.770;9.148;2023-09-12T02:19:55;20.20;98.10
62581;DHT22;48640;48.770;9.148;2023-09-12T02:22:22;20.10;98.20
62581;DHT22;48640;48.770;9.148;2023-09-12T02:24:49;20.10;98.40
62581;DHT22;48640;48.770;9.148;2023-09-12T02:27:16;20.10;98.30
62581;DHT22;48640;48.770;9.148;2023-09-12T02:29:43;20.10;98.00
62581;DHT22;48640;48.770;9.148;2023-09-12T02:32:11;20.20;98.10
62581;DHT22;48640;48.770;9.148;2023-09-12T02:34:38;20.20;98.10
62581;DHT22;48640;48.770;9.148;2023-09-12T02:37:06;20.30;98.00
62581;DHT22;48640;48.770;9.148;2023-09-12T02:39:33;20.20;98.00
62581;DHT22;48640;48.770;9.148;2023-09-12T02:42:00;20.20;98.00
62581;DHT22;48640;48.770;9.148;2023-09-12T02:44:28;20.20;97.70
62581;DHT22;48640;48.770;9.148;2023-09-12T02:46:55;20.20;97.80
62581;DHT22;48640;48.770;9.148;2023-09-12T02:49:21;20.20;97.00
62581;DHT22;48640;48.770;9.148;2023-09-12T02:51:49;20.20;97.20
62581;DHT22;48640;48.770;9.148;2023-09-12T02:54:17;20.30;97.20
62581;DHT22;48640;48.770;9.148;2023-09-12T02:56:44;20.20;97.60
62581;DHT22;48640;48.770;9.148;2023-09-12T02:59:10;20.20;97.80
62581;DHT22;48640;48.770;9.148;2023-09-12T03:01:37;20.10;98.10
62581;DHT22;48640;48.770;9.148;2023-09-12T03:04:04;20.00;98.20
62581;DHT22;48640;48.770;9.148;2023-09-12T03:06:31;20.00;98.20
62581;DHT22;48640;48.770;9.148;2023-09-12T03:08:58;20.00;98.30
62581;DHT22;48640;48.770;9.148;2023-09-12T03:11:27;19.90;98.20
62581;DHT22;48640;48.770;9.148;2023-09-12T03:13:55;20.00;98.20
62581;DHT22;48640;48.770;9.148;2023-09-12T03:16:22;20.00;98.40
62581;DHT22;48640;48.770;9.148;2023-09-12T03:18:49;19.90;98.20
62581;DHT22;48640;48.770;9.148;2023-09-12T03:21:16;20.00;97.90
62581;DHT22;48640;48.770;9.148;2023-09-12T03:23:43;20.10;97.70
62581;DHT22;48640;48.770;9.148;2023-09-12T03:26:10;20.00;97.60
62581;DHT22;48640;48.770;9.148;2023-09-12T03:28:38;20.10;97.40
62581;DHT22;48640;48.770;9.148;2023-09-12T03:31:08;20.00;97.50
62581;DHT22;48640;48.770;9.148;2023-09-12T03:33:37;20.00;97.40
62581;DHT22;48640;48.770;9.148;2023-09-12T03:36:04;19.90;97.50
62581;DHT22;48640;48.770;9.148;2023-09-12T03:38:32;19.90;97.40
62581;DHT22;48640;48.770;9.148;2023-09-12T03:41:01;19.90;97.20
62581;DHT22;48640;48.770;9.148;2023-09-12T03:43:28;20.00;96.90
62581;DHT22;48640;48.770;9.148;2023-09-12T03:45:56;19.90;97.30
62581;DHT22;48640;48.770;9.148;2023-09-12T03:48:23;19.80;97.90
62581;DHT22;48640;48.770;9.148;2023-09-12T03:50:50;19.80;97.80
62581;DHT22;48640;48.770;9.148;2023-09-12T03:53:17;19.80;98.00
62581;DHT22;48640;48.770;9.148;2023-09-12T03:55:44;19.70;98.30
62581;DHT22;48640;48.770;9.148;2023-09-12T03:58:10;19.70;98.40
62581;DHT22;48640;48.770;9.148;2023-09-12T04:00:37;19.70;98.40
62581;DHT22;48640;48.770;9.148;2023-09-12T04:03:06;19.70;98.10
62581;DHT22;48640;48.770;9.148;2023-09-12T04:05:34;19.80;98.10
62581;DHT22;48640;48.770;9.148;2023-09-12T04:08:01;19.70;98.70
62581;DHT22;48640;48.770;9.148;2023-09-12T04:10:28;19.70;98.40
62581;DHT22;48640;48.770;9.148;2023-09-12T04:12:55;19.70;98.30
62581;DHT22;48640;48.770;9.148;2023-09-12T04:15:22;19.80;98.20
62581;DHT22;48640;48.770;9.148;2023-09-12T04:17:48;19.70;98.10
62581;DHT22;48640;48.770;9.148;2023-09-12T04:20:17;19.60;98.60
62581;DHT22;48640;48.770;9.148;2023-09-12T04:22:44;19.60;98.70
62581;DHT22;48640;48.770;9.148;2023-09-12T04:25:11;19.60;98.70
62581;DHT22;48640;48.770;9.148;2023-09-12T04:27:38;19.70;98.40
62581;DHT22;48640;48.770;9.148;2023-09-12T04:30:05;19.90;97.80
62581;DHT22;48640;48.770;9.148;2023-09-12T04:32:32;19.80;98.20
62581;DHT22;48640;48.770;9.148;2023-09-12T04:34:59;19.80;98.30
62581;DHT22;48640;48.770;9.148;2023-09-12T04:37:28;19.70;98.70
62581;DHT22;48640;48.770;9.148;2023-09-12T04:39:55;19.60;98.90
62581;DHT22;48640;48.770;9.148;2023-09-12T04:42:22;19.70;98.70
62581;DHT22;48640;48.770;9.148;2023-09-12T04:44:49;19.70;98.60
62581;DHT22;48640;48.770;9.148;2023-09-12T04:47:16;19.60;98.80
62581;DHT22;48640;48.770;9.148;2023-09-12T04:49:44;19.60;98.80
62581;DHT22;48640;48.770;9.148;2023-09-12T04:52:10;19.70;98.40
62581;DHT22;48640;48.770;9.148;2023-09-12T04:54:39;19.70;98.40
62581;DHT22;48640;48.770;9.148;2023-09-12T04:57:07;19.70;98.20
62581;DHT22;48640;48.770;9.148;2023-09-12T04:59:34;19.70;98.50
62581;DHT22;48640;48.770;9.148;2023-09-12T05:02:03;19.60;98.40
62581;DHT22;48640;48.770;9.148;2023-09-12T05:04:30;19.60;98.50
62581;DHT22;48640;48.770;9.148;2023-09-12T05:06:57;19.60;98.60
62581;DHT22;48640;48.770;9.148;2023-09-12T05:09:24;19.60;98.60
62581;DHT22;48640;48.770;9.148;2023-09-12T05:11:53;19.70;98.50
62581;DHT22;48640;48.770;9.148;2023-09-12T05:14:20;19.70;98.50
62581;DHT22;48640;48.770;9.148;2023-09-12T05:16:46;19.70;98.30
62581;DHT22;48640;48.770;9.148;2023-09-12T05:19:15;19.80;97.70
62581;DHT22;48640;48.770;9.148;2023-09-12T05:21:43;20.00;97.50
62581;DHT22;48640;48.770;9.148;2023-09-12T05:24:11;20.10;96.90
62581;DHT22;48640;48.770;9.148;2023-09-12T05:26:37;20.10;97.30
62581;DHT22;48640;48.770;9.148;2023-09-12T05:29:08;20.10;97.20
62581;DHT22;48640;48.770;9.148;2023-09-12T05:31:35;20.10;97.40
62581;DHT22;48640;48.770;9.148;2023-09-12T05:34:03;20.20;97.10
62581;DHT22;48640;48.770;9.148;2023-09-12T05:36:30;20.20;97.20
62581;DHT22;48640;48.770;9.148;2023-09-12T05:38:56;20.30;96.70
62581;DHT22;48640;48.770;9.148;2023-09-12T05:41:23;20.40;96.30
62581;DHT22;48640;48.770;9.148;2023-09-12T05:43:50;20.50;95.80
62581;DHT22;48640;48.770;9.148;2023-09-12T05:46:18;20.60;95.80
62581;DHT22;48640;48.770;9.148;2023-09-12T05:48:45;20.80;95.50
62581;DHT22;48640;48.770;9.148;2023-09-12T05:51:12;20.90;95.30
62581;DHT22;48640;48.770;9.148;2023-09-12T05:53:39;21.10;95.70
62581;DHT22;48640;48.770;9.148;2023-09-12T05:56:06;21.10;95.50
62581;DHT22;48640;48.770;9.148;2023-09-12T05:58:33;21.20;94.70
62581;DHT22;48640;48.770;9.148;2023-09-12T06:01:01;21.50;93.70
62581;DHT22;48640;48.770;9.148;2023-09-12T06:03:30;21.60;93.50
62581;DHT22;48640;48.770;9.148;2023-09-12T06:05:57;21.80;93.40
62581;DHT22;48640;48.770;9.148;2023-09-12T06:08:24;21.90;92.60
62581;DHT22;48640;48.770;9.148;2023-09-12T06:10:51;22.00;92.40
62581;DHT22;48640;48.770;9.148;2023-09-12T06:13:20;22.00;92.50
62581;DHT22;48640;48.770;9.148;2023-09-12T06:15:48;22.00;92.70
62581;DHT22;48640;48.770;9.148;2023-09-12T06:18:15;21.90;92.50
62581;DHT22;48640;48.770;9.148;2023-09-12T06:20:45;21.90;92.70
62581;DHT22;48640;48.770;9.148;2023-09-12T06:23:12;22.00;92.70
62581;DHT22;48640;48.770;9.148;2023-09-12T06:25:39;22.10;92.60
62581;DHT22;48640;48.770;9.148;2023-09-12T06:28:08;22.10;93.10
62581;DHT22;48640;48.770;9.148;2023-09-12T06:30:35;22.00;92.70
62581;DHT22;48640;48.770;9.148;2023-09-12T06:33:02;22.20;92.50
62581;DHT22;48640;48.770;9.148;2023-09-12T06:35:30;22.20;92.50
62581;DHT22;48640;48.770;9.148;2023-09-12T06:37:59;22.30;92.30
62581;DHT22;48640;48.770;9.148;2023-09-12T06:40:26;22.30;92.50
62581;DHT22;48640;48.770;9.148;2023-09-12T06:42:53;22.30;92.70
62581;DHT22;48640;48.770;9.148;2023-09-12T06:45:20;22.40;92.00
62581;DHT22;48640;48.770;9.148;2023-09-12T06:47:47;22.40;91.70
62581;DHT22;48640;48.770;9.148;2023-09-12T06:50:14;22.50;91.70
62581;DHT22;48640;48.770;9.148;2023-09-12T06:52:41;22.50;91.50
62581;DHT22;48640;48.770;9.148;2023-09-12T06:55:10;22.50;92.10
62581;DHT22;48640;48.770;9.148;2023-09-12T06:57:37;22.80;91.40
62581;DHT22;48640;48.770;9.148;2023-09-12T07:00:05;23.10;91.10
62581;DHT22;48640;48.770;9.148;2023-09-12T07:02:33;23.30;91.20
62581;DHT22;48640;48.770;9.148;2023-09-12T07:05:00;23.40;90.70
62581;DHT22;48640;48.770;9.148;2023-09-12T07:07:29;23.50;90.30
62581;DHT22;48640;48.770;9.148;2023-09-12T07:09:56;23.60;89.60
62581;DHT22;48640;48.770;9.148;2023-09-12T07:12:24;23.70;88.40
62581;DHT22;48640;48.770;9.148;2023-09-12T07:14:51;23.90;87.80
62581;DHT22;48640;48.770;9.148;2023-09-12T07:17:18;24.10;88.40
62581;DHT22;48640;48.770;9.148;2023-09-12T07:19:45;24.30;87.10
62581;DHT22;48640;48.770;9.148;2023-09-12T07:22:12;24.40;86.40
62581;DHT22;48640;48.770;9.148;2023-09-12T07:24:38;24.60;84.50
62581;DHT22;48640;48.770;9.148;2023-09-12T07:27:05;24.40;85.20
62581;DHT22;48640;48.770;9.148;2023-09-12T07:29:34;24.00;85.60
62581;DHT22;48640;48.770;9.148;2023-09-12T07:32:01;23.70;86.90
62581;DHT22;48640;48.770;9.148;2023-09-12T07:34:28;23.70;87.80
62581;DHT22;48640;48.770;9.148;2023-09-12T07:36:54;23.60;89.00
62581;DHT22;48640;48.770;9.148;2023-09-12T07:39:21;23.60;87.90
62581;DHT22;48640;48.770;9.148;2023-09-12T07:41:48;23.60;88.70
62581;DHT22;48640;48.770;9.148;2023-09-12T07:44:15;23.60;88.70
62581;DHT22;48640;48.770;9.148;2023-09-12T07:46:43;23.70;87.50
62581;DHT22;48640;48.770;9.148;2023-09-12T07:49:10;23.80;88.50
62581;DHT22;48640;48.770;9.148;2023-09-12T07:51:38;24.10;88.50
62581;DHT22;48640;48.770;9.148;2023-09-12T07:54:05;24.30;86.00
62581;DHT22;48640;48.770;9.148;2023-09-12T07:56:32;24.40;85.10
62581;DHT22;48640;48.770;9.148;2023-09-12T07:58:58;24.50;85.00
62581;DHT22;48640;48.770;9.148;2023-09-12T08:01:25;24.50;85.00
62581;DHT22;48640;48.770;9.148;2023-09-12T08:03:54;24.60;85.00
62581;DHT22;48640;48.770;9.148;2023-09-12T08:06:22;24.90;84.10
62581;DHT22;48640;48.770;9.148;2023-09-12T08:08:50;25.00;82.90
62581;DHT22;48640;48.770;9.148;2023-09-12T08:11:17;25.00;83.20
62581;DHT22;48640;48.770;9.148;2023-09-12T08:13:47;25.20;82.40
62581;DHT22;48640;48.770;9.148;2023-09-12T08:16:16;25.40;82.40
62581;DHT22;48640;48.770;9.148;2023-09-12T08:18:43;25.60;80.90
62581;DHT22;48640;48.770;9.148;2023-09-12T08:21:12;25.80;79.90
62581;DHT22;48640;48.770;9.148;2023-09-12T08:23:39;25.80;79.50
62581;DHT22;48640;48.770;9.148;2023-09-12T08:26:06;25.70;79.90
62581;DHT22;48640;48.770;9.148;2023-09-12T08:28:34;25.60;81.30
62581;DHT22;48640;48.770;9.148;2023-09-12T08:31:02;25.50;82.00
62581;DHT22;48640;48.770;9.148;2023-09-12T08:33:29;25.70;81.30
62581;DHT22;48640;48.770;9.148;2023-09-12T08:35:56;25.90;80.60
62581;DHT22;48640;48.770;9.148;2023-09-12T08:38:27;26.00;80.30
62581;DHT22;48640;48.770;9.148;2023-09-12T08:40:56;26.90;80.90
62581;DHT22;48640;48.770;9.148;2023-09-12T08:43:23;29.20;71.50
62581;DHT22;48640;48.770;9.148;2023-09-12T08:45:52;31.10;61.20
62581;DHT22;48640;48.770;9.148;2023-09-12T08:48:18;33.80;53.60
62581;DHT22;48640;48.770;9.148;2023-09-12T08:50:48;34.50;49.00
62581;DHT22;48640;48.770;9.148;2023-09-12T08:53:16;35.50;45.40
62581;DHT22;48640;48.770;9.148;2023-09-12T08:55:48;35.80;44.90
62581;DHT22;48640;48.770;9.148;2023-09-12T08:58:19;36.20;43.80
62581;DHT22;48640;48.770;9.148;2023-09-12T09:00:47;36.30;42.60
62581;DHT22;48640;48.770;9.148;2023-09-12T09:03:14;36.80;41.80
62581;DHT22;48640;48.770;9.148;2023-09-12T09:05:42;37.00;41.00
62581;DHT22;48640;48.770;9.148;2023-09-12T09:08:10;37.50;39.50
62581;DHT22;48640;48.770;9.148;2023-09-12T09:10:38;36.90;40.20
62581;DHT22;48640;48.770;9.148;2023-09-12T09:13:07;37.70;39.10
62581;DHT22;48640;48.770;9.148;2023-09-12T09:15:35;38.50;37.80
62581;DHT22;48640;48.770;9.148;2023-09-12T09:18:04;38.40;37.50
62581;DHT22;48640;48.770;9.148;2023-09-12T09:20:34;38.90;36.40
62581;DHT22;48640;48.770;9.148;2023-09-12T09:23:03;39.40;36.60
62581;DHT22;48640;48.770;9.148;2023-09-12T09:25:31;38.90;35.70
62581;DHT22;48640;48.770;9.148;2023-09-12T09:27:58;39.00;36.90
62581;DHT22;48640;48.770;9.148;2023-09-12T09:30:41;39.40;35.10
62581;DHT22;48640;48.770;9.148;2023-09-12T09:33:08;39.50;35.70
62581;DHT22;48640;48.770;9.148;2023-09-12T09:35:36;39.70;35.20
62581;DHT22;48640;48.770;9.148;2023-09-12T09:38:05;40.40;33.70
62581;DHT22;48640;48.770;9.148;2023-09-12T09:40:33;39.90;34.10
62581;DHT22;48640;48.770;9.148;2023-09-12T09:43:00;40.00;33.70
62581;DHT22;48640;48.770;9.148;2023-09-12T09:45:29;39.90;33.80
62581;DHT22;48640;48.770;9.148;2023-09-12T09:47:58;39.20;35.00
62581;DHT22;48640;48.770;9.148;2023-09-12T09:50:26;38.40;37.30
62581;DHT22;48640;48.770;9.148;2023-09-12T09:52:54;38.80;36.20
62581;DHT22;48640;48.770;9.148;2023-09-12T09:55:23;40.00;34.40
62581;DHT22;48640;48.770;9.148;2023-09-12T09:57:50;40.60;33.20
62581;DHT22;48640;48.770;9.148;2023-09-12T10:00:22;40.50;33.50
62581;DHT22;48640;48.770;9.148;2023-09-12T10:02:50;39.20;34.20
62581;DHT22;48640;48.770;9.148;2023-09-12T10:05:20;39.60;34.50
62581;DHT22;48640;48.770;9.148;2023-09-12T10:07:49;40.10;33.50
62581;DHT22;48640;48.770;9.148;2023-09-12T10:10:17;40.20;33.20
62581;DHT22;48640;48.770;9.148;2023-09-12T10:12:49;40.20;33.30
62581;DHT22;48640;48.770;9.148;2023-09-12T10:15:18;40.10;32.50
62581;DHT22;48640;48.770;9.148;2023-09-12T10:17:47;39.80;34.20
62581;DHT22;48640;48.770;9.148;2023-09-12T10:20:27;39.10;34.10
62581;DHT22;48640;48.770;9.148;2023-09-12T10:23:02;39.50;33.70
62581;DHT22;48640;48.770;9.148;2023-09-12T10:25:35;40.10;33.20
62581;DHT22;48640;48.770;9.148;2023-09-12T10:28:04;39.40;34.20
62581;DHT22;48640;48.770;9.148;2023-09-12T10:30:32;38.90;35.40
62581;DHT22;48640;48.770;9.148;2023-09-12T10:32:59;39.40;34.20
62581;DHT22;48640;48.770;9.148;2023-09-12T10:35:30;39.70;33.30
62581;DHT22;48640;48.770;9.148;2023-09-12T10:37:59;38.70;34.90
62581;DHT22;48640;48.770;9.148;2023-09-12T10:40:27;38.70;35.60
62581;DHT22;48640;48.770;9.148;2023-09-12T10:42:56;38.30;34.60
62581;DHT22;48640;48.770;9.148;2023-09-12T10:45:22;38.60;35.30
62581;DHT22;48640;48.770;9.148;2023-09-12T10:47:49;39.60;33.90
62581;DHT22;48640;48.770;9.148;2023-09-12T10:50:16;39.40;33.00
62581;DHT22;48640;48.770;9.148;2023-09-12T10:52:44;39.10;33.30
62581;DHT22;48640;48.770;9.148;2023-09-12T10:55:16;39.20;33.90
62581;DHT22;48640;48.770;9.148;2023-09-12T10:58:01;38.50;35.00
62581;DHT22;48640;48.770;9.148;2023-09-12T11:00:29;38.60;35.80
62581;DHT22;48640;48.770;9.148;2023-09-12T11:02:58;38.70;34.70
62581;DHT22;48640;48.770;9.148;2023-09-12T11:05:36;39.10;34.60
62581;DHT22;48640;48.770;9.148;2023-09-12T11:08:04;39.40;32.50
62581;DHT22;48640;48.770;9.148;2023-09-12T11:10:31;38.80;33.20
62581;DHT22;48640;48.770;9.148;2023-09-12T11:12:58;38.40;34.70
62581;DHT22;48640;48.770;9.148;2023-09-12T11:15:27;38.60;33.90
62581;DHT22;48640;48.770;9.148;2023-09-12T11:18:02;38.90;33.20
62581;DHT22;48640;48.770;9.148;2023-09-12T11:20:49;38.80;33.70
62581;DHT22;48640;48.770;9.148;2023-09-12T11:23:18;38.70;33.50
62581;DHT22;48640;48.770;9.148;2023-09-12T11:25:45;38.40;33.60
62581;DHT22;48640;48.770;9.148;2023-09-12T11:28:12;37.60;35.20
62581;DHT22;48640;48.770;9.148;2023-09-12T11:30:55;37.60;35.30
62581;DHT22;48640;48.770;9.148;2023-09-12T11:33:23;37.60;34.50
62581;DHT22;48640;48.770;9.148;2023-09-12T11:35:52;36.60;35.40
62581;DHT22;48640;48.770;9.148;2023-09-12T11:38:28;36.20;37.00
62581;DHT22;48640;48.770;9.148;2023-09-12T11:40:56;36.10;37.10
62581;DHT22;48640;48.770;9.148;2023-09-12T11:43:24;36.10;37.00
62581;DHT22;48640;48.770;9.148;2023-09-12T11:45:51;36.10;38.30
62581;DHT22;48640;48.770;9.148;2023-09-12T11:48:18;36.50;36.30
62581;DHT22;48640;48.770;9.148;2023-09-12T11:50:50;36.50;37.20
62581;DHT22;48640;48.770;9.148;2023-09-12T11:53:20;36.60;38.30
62581;DHT22;48640;48.770;9.148;2023-09-12T11:55:49;36.90;36.20
62581;DHT22;48640;48.770;9.148;2023-09-12T11:58:18;36.50;36.90
62581;DHT22;48640;48.770;9.148;2023-09-12T12:00:46;36.10;37.10
62581;DHT22;48640;48.770;9.148;2023-09-12T12:03:14;36.00;37.00
62581;DHT22;48640;48.770;9.148;2023-09-12T12:05:41;36.20;37.60
62581;DHT22;48640;48.770;9.148;2023-09-12T12:08:08;36.70;36.50
62581;DHT22;48640;48.770;9.148;2023-09-12T12:10:36;36.80;36.20
62581;DHT22;48640;48.770;9.148;2023-09-12T12:13:06;36.90;36.80
62581;DHT22;48640;48.770;9.148;2023-09-12T12:15:33;36.90;36.10
62581;DHT22;48640;48.770;9.148;2023-09-12T12:18:00;36.50;36.50
62581;DHT22;48640;48.770;9.148;2023-09-12T12:20:27;36.60;36.60
62581;DHT22;48640;48.770;9.148;2023-09-12T12:22:55;36.30;36.00
62581;DHT22;48640;48.770;9.148;2023-09-12T12:25:22;36.00;37.00
62581;DHT22;48640;48.770;9.148;2023-09-12T12:27:49;35.90;36.70
62581;DHT22;48640;48.770;9.148;2023-09-12T12:30:18;35.50;38.50
62581;DHT22;48640;48.770;9.148;2023-09-12T12:32:46;35.60;37.50
62581;DHT22;48640;48.770;9.148;2023-09-12T12:35:17;35.50;37.30
62581;DHT22;48640;48.770;9.148;2023-09-12T12:37:45;35.70;37.80
62581;DHT22;48640;48.770;9.148;2023-09-12T12:40:13;35.80;37.70
62581;DHT22;48640;48.770;9.148;2023-09-12T12:42:41;36.00;36.20
62581;DHT22;48640;48.770;9.148;2023-09-12T12:45:11;35.70;37.40
62581;DHT22;48640;48.770;9.148;2023-09-12T12:47:41;35.30;37.40
62581;DHT22;48640;48.770;9.148;2023-09-12T12:50:08;34.70;38.10
62581;DHT22;48640;48.770;9.148;2023-09-12T12:52:37;34.70;37.60
62581;DHT22;48640;48.770;9.148;2023-09-12T12:55:04;34.40;39.00
62581;DHT22;48640;48.770;9.148;2023-09-12T12:57:31;33.90;39.10
62581;DHT22;48640;48.770;9.148;2023-09-12T12:59:58;34.10;39.30
62581;DHT22;48640;48.770;9.148;2023-09-12T13:02:26;34.30;40.00
62581;DHT22;48640;48.770;9.148;2023-09-12T13:04:54;34.50;38.10
62581;DHT22;48640;48.770;9.148;2023-09-12T13:07:21;34.10;40.70
62581;DHT22;48640;48.770;9.148;2023-09-12T13:09:47;33.70;39.60
62581;DHT22;48640;48.770;9.148;2023-09-12T13:12:14;33.60;39.80
62581;DHT22;48640;48.770;9.148;2023-09-12T13:14:43;33.70;39.60
62581;DHT22;48640;48.770;9.148;2023-09-12T13:17:10;33.90;39.10
62581;DHT22;48640;48.770;9.148;2023-09-12T13:19:37;34.30;38.20
62581;DHT22;48640;48.770;9.148;2023-09-12T13:22:05;34.50;38.40
62581;DHT22;48640;48.770;9.148;2023-09-12T13:24:32;34.30;38.60
62581;DHT22;48640;48.770;9.148;2023-09-12T13:26:58;34.20;37.90
62581;DHT22;48640;48.770;9.148;2023-09-12T13:29:25;33.90;38.80
62581;DHT22;48640;48.770;9.148;2023-09-12T13:31:52;33.70;39.30
62581;DHT22;48640;48.770;9.148;2023-09-12T13:34:19;33.60;39.40
62581;DHT22;48640;48.770;9.148;2023-09-12T13:36:46;33.70;39.50
62581;DHT22;48640;48.770;9.148;2023-09-12T13:39:14;33.70;40.30
62581;DHT22;48640;48.770;9.148;2023-09-12T13:41:42;33.70;38.20
62581;DHT22;48640;48.770;9.148;2023-09-12T13:44:10;33.40;39.10
62581;DHT22;48640;48.770;9.148;2023-09-12T13:46:37;33.00;40.40
62581;DHT22;48640;48.770;9.148;2023-09-12T13:49:04;32.90;41.10
62581;DHT22;48640;48.770;9.148;2023-09-12T13:51:31;33.00;41.00
62581;DHT22;48640;48.770;9.148;2023-09-12T13:53:57;33.10;40.90
62581;DHT22;48640;48.770;9.148;2023-09-12T13:56:26;33.10;40.20
62581;DHT22;48640;48.770;9.148;2023-09-12T13:58:53;33.10;41.40
62581;DHT22;48640;48.770;9.148;2023-09-12T14:01:19;32.90;41.90
62581;DHT22;48640;48.770;9.148;2023-09-12T14:03:46;32.80;41.90
62581;DHT22;48640;48.770;9.148;2023-09-12T14:06:13;32.60;43.20
62581;DHT22;48640;48.770;9.148;2023-09-12T14:08:40;32.70;43.30
62581;DHT22;48640;48.770;9.148;2023-09-12T14:11:07;32.70;43.20
62581;DHT22;48640;48.770;9.148;2023-09-12T14:13:35;32.70;42.80
62581;DHT22;48640;48.770;9.148;2023-09-12T14:16:01;32.70;42.70
62581;DHT22;48640;48.770;9.148;2023-09-12T14:18:29;32.50;43.10
62581;DHT22;48640;48.770;9.148;2023-09-12T14:20:56;32.40;43.20
62581;DHT22;48640;48.770;9.148;2023-09-12T14:23:23;32.20;43.70
62581;DHT22;48640;48.770;9.148;2023-09-12T14:25:50;32.00;43.50
62581;DHT22;48640;48.770;9.148;2023-09-12T14:28:17;31.80;43.40
62581;DHT22;48640;48.770;9.148;2023-09-12T14:30:45;31.40;45.30
62581;DHT22;48640;48.770;9.148;2023-09-12T14:33:14;31.20;44.80
62581;DHT22;48640;48.770;9.148;2023-09-12T14:35:43;30.70;46.20
62581;DHT22;48640;48.770;9.148;2023-09-12T14:38:10;30.70;46.30
62581;DHT22;48640;48.770;9.148;2023-09-12T14:40:36;30.50;46.80
62581;DHT22;48640;48.770;9.148;2023-09-12T14:43:05;30.50;46.80
62581;DHT22;48640;48.770;9.148;2023-09-12T14:45:33;30.40;47.70
62581;DHT22;48640;48.770;9.148;2023-09-12T14:48:02;30.40;47.50
62581;DHT22;48640;48.770;9.148;2023-09-12T14:50:28;30.40;47.20
62581;DHT22;48640;48.770;9.148;2023-09-12T14:52:56;30.30;47.90
62581;DHT22;48640;48.770;9.148;2023-09-12T14:55:23;30.30;48.60
62581;DHT22;48640;48.770;9.148;2023-09-12T14:57:50;30.30;48.30
62581;DHT22;48640;48.770;9.148;2023-09-12T15:00:20;30.30;48.20
62581;DHT22;48640;48.770;9.148;2023-09-12T15:02:47;30.20;48.60
62581;DHT22;48640;48.770;9.148;2023-09-12T15:05:15;30.20;49.60
62581;DHT22;48640;48.770;9.148;2023-09-12T15:07:42;30.20;49.90
62581;DHT22;48640;48.770;9.148;2023-09-12T15:10:09;30.30;50.10
62581;DHT22;48640;48.770;9.148;2023-09-12T15:12:36;30.30;49.70
62581;DHT22;48640;48.770;9.148;2023-09-12T15:15:03;30.30;48.60
62581;DHT22;48640;48.770;9.148;2023-09-12T15:17:30;30.30;49.70
62581;DHT22;48640;48.770;9.148;2023-09-12T15:19:57;30.40;48.90
62581;DHT22;48640;48.770;9.148;2023-09-12T15:22:25;30.50;49.80
62581;DHT22;48640;48.770;9.148;2023-09-12T15:24:53;30.60;49.30
62581;DHT22;48640;48.770;9.148;2023-09-12T15:27:19;30.70;50.10
62581;DHT22;48640;48.770;9.148;2023-09-12T15:29:46;30.70;49.60
62581;DHT22;48640;48.770;9.148;2023-09-12T15:32:13;30.60;48.90
62581;DHT22;48640;48.770;9.148;2023-09-12T15:34:40;30.40;49.20